createdAt,value
2022-08-05T00:06:29.499Z,59.70
2022-08-05T00:16:35.920Z,59.90
2022-08-05T00:26:39.085Z,60.00
2022-08-05T00:37:11.022Z,60.20
2022-08-05T00:47:26.321Z,60.80
2022-08-05T00:57:55.221Z,61.20
2022-08-05T01:08:41.465Z,61.60
2022-08-05T01:18:23.676Z,62.00
2022-08-05T01:28:51.756Z,61.90
2022-08-05T01:38:54.950Z,62.60
2022-08-05T01:48:59.223Z,60.90
2022-08-05T01:59:09.323Z,60.20
2022-08-05T02:09:11.124Z,60.50
2022-08-05T02:19:47.038Z,61.20
2022-08-05T02:29:58.955Z,62.50
2022-08-05T02:40:03.417Z,65.60
2022-08-05T02:50:07.828Z,67.80
2022-08-05T03:00:13.774Z,68.60
2022-08-05T03:10:24.465Z,69.30
2022-08-05T03:20:26.935Z,69.90
2022-08-05T03:30:34.149Z,70.10
2022-08-05T03:40:40.906Z,70.40
2022-08-05T03:50:50.337Z,70.50
2022-08-05T04:00:54.052Z,70.60
2022-08-05T04:10:57.073Z,70.90
2022-08-05T04:20:59.172Z,71.20
2022-08-05T04:31:02.242Z,71.50
2022-08-05T04:41:10.253Z,72.60
2022-08-05T04:51:12.532Z,74.00
2022-08-05T05:01:15.279Z,74.00
2022-08-05T05:11:48.531Z,73.60
2022-08-05T05:21:55.865Z,73.50
2022-08-05T05:31:57.507Z,72.50
2022-08-05T05:41:59.194Z,69.30
2022-08-05T05:52:06.057Z,69.30
2022-08-05T06:02:09.108Z,69.00
2022-08-05T06:12:12.161Z,69.00
2022-08-05T06:22:26.268Z,69.00
2022-08-05T06:32:29.164Z,69.40
2022-08-05T06:42:31.039Z,70.00
2022-08-05T06:52:36.989Z,70.30
2022-08-05T07:02:44.011Z,70.20
2022-08-05T07:13:09.333Z,70.00
2022-08-05T07:23:13.039Z,69.90
2022-08-05T07:33:35.040Z,69.60
2022-08-05T07:43:38.729Z,69.20
2022-08-05T07:53:50.007Z,68.80
2022-08-05T08:03:52.791Z,68.10
2022-08-05T08:14:00.723Z,68.00
2022-08-05T08:24:04.951Z,67.80
2022-08-05T08:34:07.842Z,67.30
2022-08-05T08:45:18.348Z,66.40
2022-08-05T08:54:36.221Z,65.80
2022-08-05T09:04:58.301Z,64.30
2022-08-05T09:15:06.602Z,61.60
2022-08-05T09:25:13.458Z,60.40
2022-08-05T09:35:26.340Z,60.10
2022-08-05T09:46:07.765Z,59.20
2022-08-05T09:56:03.912Z,58.70
2022-08-05T10:06:15.741Z,58.00
2022-08-05T10:16:33.753Z,57.70
2022-08-05T10:26:36.682Z,57.20
2022-08-05T10:36:51.254Z,56.70
2022-08-05T10:46:55.727Z,56.40
2022-08-05T10:56:58.455Z,54.60
2022-08-05T11:07:01.476Z,52.70
2022-08-05T11:18:09.533Z,52.80
2022-08-05T11:28:11.575Z,54.10
2022-08-05T11:38:30.913Z,53.10
2022-08-05T11:48:42.221Z,53.50
2022-08-05T11:58:52.810Z,51.80
2022-08-05T12:08:57.481Z,49.40
2022-08-05T12:19:00.353Z,48.90
2022-08-05T12:29:09.860Z,49.40
2022-08-05T12:39:19.149Z,49.90
2022-08-05T12:49:21.454Z,50.40
2022-08-05T13:00:08.959Z,50.80
2022-08-05T13:10:01.281Z,51.30
2022-08-05T13:20:06.626Z,52.10
2022-08-05T13:30:34.014Z,52.70
2022-08-05T13:40:49.811Z,52.90
2022-08-05T13:50:53.400Z,53.30
2022-08-05T14:00:56.497Z,54.70
2022-08-05T14:11:03.329Z,55.00
2022-08-05T14:22:07.385Z,54.20
2022-08-05T14:31:54.445Z,54.40
2022-08-05T14:53:25.387Z,56.90
2022-08-05T15:03:33.896Z,58.10
2022-08-05T15:13:46.110Z,58.80
2022-08-05T15:23:51.783Z,59.40
2022-08-05T15:34:05.980Z,60.00
2022-08-05T15:44:15.104Z,60.50
2022-08-05T15:54:17.744Z,60.80
2022-08-05T16:04:19.363Z,60.90
2022-08-05T16:14:21.767Z,60.90
2022-08-05T16:24:40.975Z,61.30
2022-08-05T16:34:45.894Z,61.90
2022-08-05T16:44:54.298Z,62.80
2022-08-05T16:54:58.771Z,63.20
2022-08-05T17:05:00.402Z,64.00
2022-08-05T17:15:02.055Z,63.50
2022-08-05T17:25:22.195Z,63.70
2022-08-05T17:35:27.068Z,64.00
2022-08-05T17:45:38.566Z,64.40
2022-08-05T17:55:40.474Z,65.60
2022-08-05T18:05:43.250Z,67.10
2022-08-05T18:15:55.225Z,68.50
2022-08-05T18:25:59.356Z,69.70
2022-08-05T18:36:05.097Z,70.60
2022-08-05T18:46:09.759Z,70.50
2022-08-05T18:56:13.809Z,70.70
2022-08-05T19:06:21.435Z,70.90
2022-08-05T19:16:28.616Z,71.20
2022-08-05T19:26:35.373Z,71.70
2022-08-05T19:36:57.739Z,75.30
2022-08-05T19:46:59.710Z,77.20
2022-08-05T19:57:08.658Z,77.60
2022-08-05T20:07:13.380Z,77.30
2022-08-05T20:17:16.231Z,75.90
2022-08-05T20:27:18.035Z,74.90
2022-08-05T20:38:06.557Z,73.40
2022-08-05T20:47:44.255Z,73.30
2022-08-05T20:57:48.440Z,72.40
2022-08-05T21:07:52.185Z,71.90
2022-08-05T21:17:54.139Z,70.60
2022-08-05T21:27:55.764Z,69.80
2022-08-05T21:37:59.011Z,68.80
2022-08-05T21:48:00.701Z,68.10
2022-08-05T21:58:02.637Z,67.70
2022-08-05T22:08:05.907Z,66.60
2022-08-05T22:18:25.559Z,65.90
2022-08-05T22:28:27.560Z,65.60
2022-08-05T22:38:29.344Z,65.20
2022-08-05T22:48:30.983Z,64.70
2022-08-05T22:58:33.533Z,64.70
2022-08-05T23:08:37.859Z,64.40
2022-08-05T23:18:41.192Z,64.50
2022-08-05T23:28:44.233Z,65.30
2022-08-05T23:38:45.923Z,64.70
2022-08-05T23:49:01.076Z,64.70
2022-08-05T23:59:03.708Z,64.90
